Time;durP1;ratioP1;P1;durP2;ratioP2;P2;SDS_P1;SDS_P2;PMS_P1;PMS_P2;Temp;Humidity;BMP_temperature;BMP_pressure;BME280_temperature;BME280_humidity;BME280_pressure;Samples;Min_cycle;Max_cycle;Signal;HPM_P1;HPM_P2
2022/03/24 00:00:54;;;;;;;11.75;5.47;;;6.60;63.00;;;;;;5066786;28;20051;-70
2022/03/24 00:03:21;;;;;;;9.82;5.03;;;6.50;63.10;;;;;;5070864;28;20149;-70
2022/03/24 00:05:48;;;;;;;10.48;4.28;;;6.50;63.30;;;;;;5074924;28;20043;-72
2022/03/24 00:08:15;;;;;;;8.82;4.65;;;6.50;63.30;;;;;;5075081;28;20118;-71
2022/03/24 00:10:42;;;;;;;10.73;4.07;;;6.40;63.50;;;;;;5077098;28;20127;-70
2022/03/24 00:13:10;;;;;;;9.30;3.72;;;6.40;63.60;;;;;;5069522;28;20127;-71
2022/03/24 00:15:38;;;;;;;9.32;4.50;;;6.30;63.70;;;;;;5067518;28;20052;-72
2022/03/24 00:18:07;;;;;;;9.45;4.40;;;6.30;63.70;;;;;;5062749;28;20059;-72
2022/03/24 00:20:34;;;;;;;7.68;4.22;;;6.30;63.60;;;;;;5067681;28;20048;-74
2022/03/24 00:23:01;;;;;;;9.00;4.28;;;6.30;63.60;;;;;;5064962;28;20394;-73
2022/03/24 00:25:28;;;;;;;10.27;4.88;;;6.20;63.80;;;;;;5062426;28;20044;-72
2022/03/24 00:27:55;;;;;;;9.93;4.65;;;6.20;64.00;;;;;;5074339;28;20051;-73
2022/03/24 00:30:22;;;;;;;8.77;4.68;;;6.10;64.20;;;;;;5056450;28;20056;-73
2022/03/24 00:32:50;;;;;;;11.82;5.03;;;6.00;64.50;;;;;;5056175;28;20128;-73
2022/03/24 00:35:18;;;;;;;11.98;5.60;;;6.00;64.70;;;;;;5064531;28;20471;-72
2022/03/24 00:37:45;;;;;;;8.00;4.05;;;6.00;64.80;;;;;;5063178;28;20140;-73
2022/03/24 00:40:16;;;;;;;12.98;5.47;;;6.00;64.50;;;;;;5058808;28;20032;-73
2022/03/24 00:42:47;;;;;;;10.38;4.82;;;6.00;64.60;;;;;;5064748;28;20040;-72
2022/03/24 00:45:14;;;;;;;9.10;4.93;;;6.00;64.30;;;;;;5071508;28;20075;-73
2022/03/24 00:47:41;;;;;;;10.85;5.10;;;6.00;64.20;;;;;;5066314;28;20059;-72
2022/03/24 00:50:11;;;;;;;8.77;4.70;;;5.90;64.20;;;;;;5071850;28;20039;-73
2022/03/24 00:52:42;;;;;;;12.52;4.47;;;6.00;64.10;;;;;;5067277;28;20072;-72
2022/03/24 00:55:10;;;;;;;;;;;6.00;63.90;;;;;;5076714;28;20036;-72
2022/03/24 00:57:37;;;;;;;7.78;4.88;;;6.00;63.90;;;;;;5073110;28;19928;-73
2022/03/24 01:00:05;;;;;;;11.18;4.95;;;6.00;63.90;;;;;;5066631;28;20047;-69
2022/03/24 01:02:32;;;;;;;9.98;5.65;;;5.90;63.90;;;;;;5068567;28;20105;-72
2022/03/24 01:05:01;;;;;;;10.15;4.15;;;5.90;64.00;;;;;;5059374;28;20048;-73
2022/03/24 01:07:29;;;;;;;10.35;4.95;;;5.80;64.00;;;;;;5075388;28;20044;-71
2022/03/24 01:09:56;;;;;;;9.20;4.57;;;5.80;64.00;;;;;;5053838;28;20595;-74
2022/03/24 01:12:23;;;;;;;8.77;5.35;;;5.80;64.10;;;;;;5064351;28;20045;-74
2022/03/24 01:14:50;;;;;;;8.07;3.60;;;5.70;64.00;;;;;;5073153;28;20126;-73
2022/03/24 01:17:18;;;;;;;7.95;3.80;;;5.70;64.10;;;;;;5074977;28;20521;-74
2022/03/24 01:19:45;;;;;;;7.82;4.43;;;5.70;64.10;;;;;;5058351;28;20114;-71
2022/03/24 01:22:12;;;;;;;9.07;4.35;;;5.70;64.20;;;;;;5075737;28;20101;-72
2022/03/24 01:24:40;;;;;;;8.60;4.65;;;5.60;64.40;;;;;;5052692;28;20033;-72
2022/03/24 01:27:10;;;;;;;7.32;4.45;;;5.60;64.60;;;;;;5070647;28;20052;-73
2022/03/24 01:29:37;;;;;;;10.82;4.68;;;5.60;64.60;;;;;;5073143;28;20048;-72
2022/03/24 01:32:07;;;;;;;10.23;4.47;;;5.60;64.70;;;;;;5058935;28;20052;-74
2022/03/24 01:34:34;;;;;;;8.82;4.22;;;5.50;64.70;;;;;;5058908;28;20049;-73
2022/03/24 01:37:01;;;;;;;10.70;4.68;;;5.50;65.00;;;;;;5054319;28;20051;-73
2022/03/24 01:39:29;;;;;;;10.23;5.07;;;5.50;65.10;;;;;;5074300;28;20093;-72
2022/03/24 01:41:58;;;;;;;9.88;4.82;;;5.40;65.10;;;;;;5045611;28;20483;-73
2022/03/24 01:44:26;;;;;;;9.63;5.22;;;5.40;65.00;;;;;;5060590;28;20037;-74
2022/03/24 01:46:58;;;;;;;9.57;4.80;;;5.40;65.10;;;;;;5062727;28;20060;-73
2022/03/24 01:49:28;;;;;;;11.07;4.75;;;5.40;65.20;;;;;;5059228;28;20045;-73
2022/03/24 01:51:55;;;;;;;8.38;4.55;;;5.30;65.20;;;;;;5060792;28;20036;-73
2022/03/24 01:54:23;;;;;;;11.13;5.20;;;5.30;65.30;;;;;;5067258;28;20128;-73
2022/03/24 01:56:53;;;;;;;7.70;4.22;;;5.40;65.20;;;;;;5054996;28;20469;-73
2022/03/24 01:59:22;;;;;;;10.35;4.35;;;5.30;65.10;;;;;;5073395;28;20041;-73
2022/03/24 02:01:49;;;;;;;7.88;4.32;;;5.30;65.20;;;;;;5034742;28;20131;-72
2022/03/24 02:04:16;;;;;;;8.93;4.78;;;5.30;65.20;;;;;;5079063;28;20068;-73
2022/03/24 02:06:44;;;;;;;14.75;4.85;;;5.30;65.20;;;;;;5075930;28;20049;-73
2022/03/24 02:09:13;;;;;;;13.25;5.50;;;5.30;65.20;;;;;;5074866;28;20085;-73
2022/03/24 02:11:41;;;;;;;9.57;4.70;;;5.20;65.30;;;;;;5076897;28;20040;-72
2022/03/24 02:14:08;;;;;;;12.02;5.80;;;5.20;65.40;;;;;;5069684;28;20059;-72
2022/03/24 02:16:39;;;;;;;9.02;4.35;;;5.20;65.60;;;;;;5055235;28;20136;-73
2022/03/24 02:19:15;;;;;;;9.95;4.80;;;5.20;65.60;;;;;;5063232;28;20048;-72
2022/03/24 02:21:43;;;;;;;8.88;4.05;;;5.10;65.60;;;;;;5075567;28;20049;-73
2022/03/24 02:24:13;;;;;;;13.10;5.10;;;5.10;65.70;;;;;;5075212;28;20401;-73
2022/03/24 02:26:42;;;;;;;8.85;4.72;;;5.00;65.90;;;;;;5072686;28;20082;-73
2022/03/24 02:29:10;;;;;;;11.82;4.63;;;5.00;65.90;;;;;;5072139;28;20053;-73
2022/03/24 02:31:38;;;;;;;7.70;3.28;;;5.00;65.90;;;;;;5070988;28;20454;-72
2022/03/24 02:36:51;;;;;;;7.30;3.17;;;4.90;66.00;;;;;;5048364;28;20044;-73
2022/03/24 02:39:20;;;;;;;5.43;2.97;;;4.90;66.00;;;;;;5072111;28;20041;-72
2022/03/24 02:41:48;;;;;;;7.97;3.00;;;4.90;66.00;;;;;;5076019;28;20037;-72
2022/03/24 02:44:17;;;;;;;7.00;3.15;;;4.90;66.10;;;;;;5074608;28;20044;-73
2022/03/24 02:46:46;;;;;;;6.70;3.30;;;4.80;66.20;;;;;;5078752;28;20060;-72
2022/03/24 02:49:13;;;;;;;8.52;3.83;;;4.70;66.20;;;;;;5079085;28;20094;-71
2022/03/24 02:51:40;;;;;;;9.40;3.65;;;4.70;66.20;;;;;;5074715;28;20501;-72
2022/03/24 02:54:08;;;;;;;6.18;3.58;;;4.70;66.30;;;;;;5075848;28;20466;-73
2022/03/24 02:56:37;;;;;;;8.25;3.90;;;4.70;66.30;;;;;;5078326;28;20036;-73
2022/03/24 02:59:06;;;;;;;8.13;3.47;;;4.70;66.30;;;;;;5076593;28;20072;-72
2022/03/24 03:01:34;;;;;;;8.15;4.10;;;4.70;66.40;;;;;;5065312;28;20041;-72
2022/03/24 03:04:01;;;;;;;7.10;3.92;;;4.70;66.50;;;;;;5072553;28;20052;-74
2022/03/24 03:06:29;;;;;;;9.95;4.60;;;4.70;66.50;;;;;;5074929;28;20033;-73
2022/03/24 03:08:56;;;;;;;11.45;5.03;;;4.70;66.60;;;;;;5075386;28;20409;-73
2022/03/24 03:11:23;;;;;;;8.60;4.20;;;4.60;66.70;;;;;;5077567;28;20044;-72
2022/03/24 03:13:52;;;;;;;9.85;5.22;;;4.60;66.80;;;;;;5074725;28;20071;-72
2022/03/24 03:16:19;;;;;;;10.50;4.22;;;4.60;66.90;;;;;;5073372;28;20498;-72
2022/03/24 03:18:46;;;;;;;6.97;4.15;;;4.50;66.90;;;;;;5057900;28;20044;-73
2022/03/24 03:21:13;;;;;;;13.30;4.97;;;4.50;66.90;;;;;;5064154;28;20048;-72
2022/03/24 03:23:41;;;;;;;7.78;3.85;;;4.50;66.90;;;;;;5069120;28;20546;-72
2022/03/24 03:26:09;;;;;;;10.15;4.85;;;4.40;67.00;;;;;;5075990;28;20029;-73
2022/03/24 03:28:36;;;;;;;10.85;4.40;;;4.40;67.00;;;;;;5074895;28;20048;-72
2022/03/24 03:31:05;;;;;;;7.78;3.72;;;4.40;67.00;;;;;;5073934;28;20036;-73
2022/03/24 03:33:32;;;;;;;9.07;4.25;;;4.40;66.90;;;;;;5080194;28;20080;-73
2022/03/24 03:35:59;;;;;;;8.75;4.28;;;4.40;67.00;;;;;;5075156;28;20044;-73
2022/03/24 03:38:27;;;;;;;7.55;4.15;;;4.40;66.90;;;;;;5073046;28;20119;-73
2022/03/24 03:40:54;;;;;;;11.50;4.43;;;4.40;66.80;;;;;;5073205;28;20046;-72
2022/03/24 03:43:22;;;;;;;7.53;4.25;;;4.30;66.90;;;;;;5077013;28;20044;-73
2022/03/24 03:45:49;;;;;;;9.98;4.50;;;4.20;67.00;;;;;;5077576;28;20056;-72
2022/03/24 03:48:18;;;;;;;10.38;4.72;;;4.30;67.00;;;;;;5076483;28;20135;-74
2022/03/24 03:50:45;;;;;;;10.52;4.13;;;4.20;66.90;;;;;;5076090;28;20422;-73
2022/03/24 03:53:12;;;;;;;8.32;3.88;;;4.30;66.80;;;;;;5073540;28;20055;-73
2022/03/24 03:55:40;;;;;;;8.50;4.07;;;4.20;67.00;;;;;;5074598;28;20041;-72
2022/03/24 03:58:07;;;;;;;12.07;4.90;;;4.20;67.00;;;;;;5076748;28;20440;-74
2022/03/24 04:00:55;;;;;;;10.10;4.70;;;4.20;67.20;;;;;;5049497;28;20044;-73
2022/03/24 04:03:24;;;;;;;7.53;4.03;;;4.10;67.30;;;;;;5076673;28;20183;-73
2022/03/24 04:05:53;;;;;;;10.85;3.95;;;4.20;67.10;;;;;;5075820;28;20575;-73
2022/03/24 04:08:21;;;;;;;7.93;3.83;;;4.10;67.10;;;;;;5074709;28;20049;-73
2022/03/24 04:10:49;;;;;;;9.25;4.15;;;4.00;67.30;;;;;;5075994;28;20099;-72
2022/03/24 04:13:17;;;;;;;9.52;4.20;;;4.00;67.20;;;;;;5078778;28;20049;-73
2022/03/24 04:15:45;;;;;;;9.40;4.78;;;4.00;67.20;;;;;;5075569;28;21596;-72
2022/03/24 04:18:12;;;;;;;9.82;4.47;;;4.10;67.20;;;;;;5071581;28;20090;-72
2022/03/24 04:20:40;;;;;;;9.30;4.10;;;4.10;67.30;;;;;;5074748;28;20044;-72
2022/03/24 04:23:08;;;;;;;8.60;4.38;;;4.00;67.30;;;;;;5075954;28;20151;-73
2022/03/24 04:25:36;;;;;;;6.97;3.55;;;4.00;67.30;;;;;;5072992;28;20051;-72
2022/03/24 04:28:04;;;;;;;9.85;4.95;;;4.00;67.40;;;;;;5057427;28;20417;-72
2022/03/24 04:30:31;;;;;;;8.73;4.40;;;4.00;67.40;;;;;;5070578;28;20591;-73
2022/03/24 04:32:59;;;;;;;9.32;4.55;;;4.00;67.40;;;;;;5071916;28;20040;-72
2022/03/24 04:35:26;;;;;;;8.02;3.80;;;3.90;67.50;;;;;;5070546;28;20044;-73
2022/03/24 04:37:54;;;;;;;6.25;2.78;;;3.90;67.60;;;;;;5072880;28;20048;-71
2022/03/24 04:40:22;;;;;;;9.38;4.32;;;3.90;67.60;;;;;;5074996;28;20065;-72
2022/03/24 04:42:51;;;;;;;12.32;4.32;;;3.90;67.60;;;;;;5073361;28;20044;-72
2022/03/24 04:45:19;;;;;;;11.27;4.65;;;3.90;67.60;;;;;;5075626;28;20036;-73
2022/03/24 04:47:46;;;;;;;9.25;4.10;;;3.80;67.60;;;;;;5076565;28;20087;-72
2022/03/24 04:50:14;;;;;;;9.82;4.63;;;3.80;67.70;;;;;;5072377;28;20059;-72
2022/03/24 04:52:42;;;;;;;9.57;3.95;;;3.80;67.70;;;;;;5061363;28;20068;-73
2022/03/24 04:55:11;;;;;;;9.25;4.55;;;3.80;67.70;;;;;;5072267;28;20044;-73
2022/03/24 04:57:38;;;;;;;8.93;4.15;;;3.70;67.80;;;;;;5074208;28;20147;-73
2022/03/24 05:00:06;;;;;;;11.38;4.50;;;3.70;67.90;;;;;;5077576;28;20086;-71
2022/03/24 05:02:34;;;;;;;7.97;4.20;;;3.70;67.80;;;;;;5075169;28;20098;-72
2022/03/24 05:05:01;;;;;;;7.50;4.07;;;3.70;67.90;;;;;;5076254;28;20071;-73
2022/03/24 05:07:33;;;;;;;7.57;3.40;;;3.70;67.90;;;;;;5067310;28;20044;-73
2022/03/24 05:10:00;;;;;;;10.65;4.88;;;3.70;67.90;;;;;;5079303;28;20040;-74
2022/03/24 05:12:30;;;;;;;7.30;4.00;;;3.70;67.90;;;;;;5075885;28;20048;-74
2022/03/24 05:14:57;;;;;;;11.98;4.50;;;3.70;68.10;;;;;;5077875;28;20103;-73
2022/03/24 05:17:24;;;;;;;8.73;4.15;;;3.70;68.10;;;;;;5077893;28;20391;-73
2022/03/24 05:19:52;;;;;;;12.18;5.03;;;3.60;68.30;;;;;;5077988;28;20097;-74
2022/03/24 05:22:19;;;;;;;9.02;4.85;;;3.60;68.40;;;;;;5075833;28;20044;-73
2022/03/24 05:24:46;;;;;;;10.48;4.45;;;3.60;68.50;;;;;;5069450;28;20041;-74
2022/03/24 05:27:13;;;;;;;11.68;4.95;;;3.50;68.50;;;;;;5078195;28;20529;-74
2022/03/24 05:29:42;;;;;;;8.65;4.43;;;3.50;68.60;;;;;;5071226;28;20060;-73
2022/03/24 05:32:09;;;;;;;7.75;3.88;;;3.50;68.60;;;;;;5074623;28;20063;-73
2022/03/24 05:34:36;;;;;;;11.30;4.30;;;3.50;68.50;;;;;;5073076;28;20044;-73
2022/03/24 05:37:04;;;;;;;8.85;4.30;;;3.50;68.60;;;;;;5072740;28;20044;-72
2022/03/24 05:39:31;;;;;;;11.13;4.20;;;3.50;68.60;;;;;;5078594;28;20124;-73
2022/03/24 05:41:58;;;;;;;10.45;4.47;;;3.50;68.70;;;;;;5072612;28;20495;-73
2022/03/24 05:44:25;;;;;;;9.02;4.22;;;3.50;68.60;;;;;;5075706;28;20098;-74
2022/03/24 05:46:54;;;;;;;8.32;4.13;;;3.50;68.60;;;;;;5073787;28;20130;-73
2022/03/24 05:49:21;;;;;;;9.75;4.57;;;3.50;68.50;;;;;;5071102;28;20075;-73
2022/03/24 05:52:18;;;;;;;9.85;3.97;;;3.50;68.60;;;;;;5059788;28;20049;-73
2022/03/24 05:54:47;;;;;;;12.50;5.05;;;3.60;68.60;;;;;;5064941;28;20045;-73
2022/03/24 05:57:13;;;;;;;9.07;4.15;;;3.60;68.60;;;;;;5072284;28;20032;-73
2022/03/24 05:59:40;;;;;;;12.15;5.20;;;3.50;68.60;;;;;;5070359;28;20044;-72
2022/03/24 06:02:09;;;;;;;9.30;4.05;;;3.60;68.70;;;;;;5070679;28;20040;-72
2022/03/24 06:04:40;;;;;;;7.90;3.55;;;3.60;68.70;;;;;;5071449;28;20561;-73
2022/03/24 06:07:08;;;;;;;9.68;3.85;;;3.60;68.70;;;;;;5076041;28;20040;-72
2022/03/24 06:09:35;;;;;;;8.80;4.32;;;3.60;68.60;;;;;;5069453;28;20060;-72
2022/03/24 06:12:02;;;;;;;8.95;4.20;;;3.70;68.50;;;;;;5070915;28;20045;-73
2022/03/24 06:14:30;;;;;;;8.30;4.40;;;3.60;68.50;;;;;;5074164;28;20098;-73
2022/03/24 06:16:57;;;;;;;8.35;4.00;;;3.70;68.60;;;;;;5071069;28;20552;-73
2022/03/24 06:19:25;;;;;;;8.73;4.90;;;3.70;68.60;;;;;;5071372;28;20036;-73
2022/03/24 06:21:52;;;;;;;12.20;4.75;;;3.70;68.50;;;;;;5070143;28;20041;-73
2022/03/24 06:24:19;;;;;;;9.35;4.13;;;3.70;68.40;;;;;;5070848;28;20047;-73
2022/03/24 06:26:46;;;;;;;11.35;4.43;;;3.80;68.30;;;;;;5070572;28;20067;-73
2022/03/24 06:29:13;;;;;;;8.75;3.88;;;3.90;68.20;;;;;;5074270;28;20086;-73
2022/03/24 06:31:41;;;;;;;11.63;4.90;;;3.90;68.30;;;;;;5074441;28;20111;-73
2022/03/24 06:34:08;;;;;;;9.23;4.22;;;3.90;68.30;;;;;;5076302;28;20044;-74
2022/03/24 06:36:37;;;;;;;9.57;4.60;;;4.00;68.30;;;;;;5071607;28;20045;-73
2022/03/24 06:39:04;;;;;;;11.48;4.53;;;4.10;68.10;;;;;;5073547;28;20040;-74
2022/03/24 06:41:31;;;;;;;10.48;4.95;;;4.20;68.10;;;;;;5081263;28;20055;-73
2022/03/24 06:43:59;;;;;;;12.43;5.35;;;4.20;68.10;;;;;;5075978;28;20625;-73
2022/03/24 06:46:27;;;;;;;10.73;4.38;;;4.30;68.00;;;;;;5070166;28;20049;-74
2022/03/24 06:48:55;;;;;;;8.00;3.88;;;4.30;67.80;;;;;;5076850;28;20044;-73
2022/03/24 06:51:22;;;;;;;7.65;3.63;;;4.40;67.80;;;;;;5075239;28;20044;-74
2022/03/24 06:53:51;;;;;;;8.85;4.78;;;4.60;67.70;;;;;;5074759;28;20174;-74
2022/03/24 06:56:18;;;;;;;9.10;4.85;;;4.60;67.40;;;;;;5076646;28;20072;-75
2022/03/24 06:58:45;;;;;;;7.63;4.03;;;4.70;67.30;;;;;;5068144;28;20052;-74
2022/03/24 07:01:12;;;;;;;8.52;4.13;;;4.80;66.70;;;;;;5071788;28;20044;-73
2022/03/24 07:03:39;;;;;;;13.02;4.75;;;4.80;66.50;;;;;;5079830;28;20046;-74
2022/03/24 07:06:06;;;;;;;11.45;4.63;;;4.90;66.50;;;;;;5067956;28;20037;-73
2022/03/24 07:08:35;;;;;;;11.73;4.82;;;5.00;66.40;;;;;;5078095;28;20102;-74
2022/03/24 07:11:04;;;;;;;11.25;5.80;;;5.10;66.20;;;;;;5076418;28;20043;-73
2022/03/24 07:13:32;;;;;;;9.50;4.38;;;5.20;66.00;;;;;;5079313;28;20053;-74
2022/03/24 07:15:59;;;;;;;11.32;5.43;;;5.20;65.90;;;;;;5073558;28;20090;-74
2022/03/24 07:18:26;;;;;;;12.93;6.05;;;5.20;65.90;;;;;;5075084;28;20068;-74
2022/03/24 07:20:53;;;;;;;12.02;4.80;;;5.30;65.80;;;;;;5076303;28;20047;-72
2022/03/24 07:23:20;;;;;;;12.07;6.18;;;5.30;65.70;;;;;;5076947;28;20048;-73
2022/03/24 07:25:47;;;;;;;12.73;5.93;;;5.40;65.40;;;;;;5070962;28;20433;-74
2022/03/24 07:28:15;;;;;;;7.68;4.40;;;5.40;65.20;;;;;;5075836;28;20047;-74
2022/03/24 07:30:43;;;;;;;11.45;6.38;;;5.50;65.10;;;;;;5073015;28;20055;-72
2022/03/24 07:33:11;;;;;;;12.90;5.47;;;5.50;65.10;;;;;;5064944;28;20132;-74
2022/03/24 07:35:38;;;;;;;12.45;5.72;;;5.60;64.70;;;;;;5074706;28;20494;-74
2022/03/24 07:38:07;;;;;;;9.95;5.75;;;5.60;64.70;;;;;;5077600;28;20055;-74
2022/03/24 07:40:34;;;;;;;12.32;5.03;;;5.60;64.60;;;;;;5074945;28;20059;-72
2022/03/24 07:43:01;;;;;;;10.88;5.60;;;5.70;64.70;;;;;;5071916;28;20044;-73
2022/03/24 07:45:30;;;;;;;11.88;5.25;;;5.70;64.50;;;;;;5076648;28;20044;-72
2022/03/24 07:48:09;;;;;;;14.85;6.00;;;5.80;64.70;;;;;;5060480;28;20044;-73
2022/03/24 07:50:38;;;;;;;13.15;6.75;;;5.90;64.60;;;;;;5074859;28;20048;-73
2022/03/24 07:53:17;;;;;;;11.15;5.07;;;6.10;64.80;;;;;;5074632;28;20555;-74
2022/03/24 07:55:47;;;;;;;10.85;5.28;;;6.20;64.70;;;;;;5073416;28;20544;-73
2022/03/24 07:58:17;;;;;;;10.43;4.75;;;6.30;64.20;;;;;;5073236;28;20183;-73
2022/03/24 08:00:45;;;;;;;10.48;5.45;;;6.50;63.60;;;;;;5071450;28;20056;-74
2022/03/24 08:03:15;;;;;;;13.25;5.97;;;6.60;63.50;;;;;;5073672;28;20123;-73
2022/03/24 08:05:42;;;;;;;9.68;5.22;;;6.80;63.00;;;;;;5078579;28;20052;-72
2022/03/24 08:08:10;;;;;;;9.25;5.05;;;6.90;62.40;;;;;;5076524;28;20050;-72
2022/03/24 08:10:37;;;;;;;9.80;5.50;;;7.10;62.50;;;;;;5074175;28;20040;-74
2022/03/24 08:13:04;;;;;;;9.48;4.82;;;7.20;61.90;;;;;;5079457;28;20147;-72
2022/03/24 08:15:32;;;;;;;13.10;5.50;;;7.30;61.60;;;;;;5076742;28;20047;-74
2022/03/24 08:18:00;;;;;;;11.90;5.53;;;7.40;61.00;;;;;;5055842;28;20051;-74
2022/03/24 08:20:27;;;;;;;10.80;5.50;;;7.50;60.60;;;;;;5072781;28;20052;-74
2022/03/24 08:22:54;;;;;;;11.30;6.03;;;7.70;60.50;;;;;;5064165;28;20048;-72
2022/03/24 08:25:21;;;;;;;12.50;5.50;;;7.70;60.10;;;;;;5070917;28;20053;-74
2022/03/24 08:27:48;;;;;;;16.60;5.65;;;7.80;60.10;;;;;;5075612;28;20044;-73
2022/03/24 08:30:15;;;;;;;11.30;5.72;;;8.00;60.30;;;;;;5077274;28;20066;-74
2022/03/24 08:32:43;;;;;;;13.52;6.25;;;8.10;59.80;;;;;;5076402;28;20052;-72
2022/03/24 08:35:12;;;;;;;12.05;5.63;;;8.20;59.40;;;;;;5071894;28;20040;-73
2022/03/24 08:37:41;;;;;;;12.23;5.80;;;8.40;59.80;;;;;;5080371;28;20166;-74
2022/03/24 08:40:10;;;;;;;12.68;6.25;;;8.50;59.80;;;;;;5076085;28;20059;-74
2022/03/24 08:42:38;;;;;;;12.65;6.43;;;8.60;59.00;;;;;;5069168;28;20057;-73
2022/03/24 08:45:06;;;;;;;11.52;5.35;;;8.70;58.50;;;;;;5066836;28;20041;-74
2022/03/24 08:47:34;;;;;;;15.00;6.18;;;8.90;58.10;;;;;;5071554;28;20053;-72
2022/03/24 08:50:01;;;;;;;12.20;6.35;;;9.00;58.50;;;;;;5072989;28;20036;-73
2022/03/24 08:52:29;;;;;;;14.90;6.03;;;9.10;58.50;;;;;;5066844;28;20051;-74
2022/03/24 08:54:57;;;;;;;12.05;5.47;;;9.20;57.90;;;;;;5073867;28;20115;-74
2022/03/24 08:57:26;;;;;;;14.30;6.10;;;9.30;57.80;;;;;;5071458;28;20041;-73
2022/03/24 08:59:54;;;;;;;13.55;5.95;;;9.40;57.80;;;;;;5078141;28;20532;-73
2022/03/24 09:02:21;;;;;;;12.82;6.05;;;9.40;58.00;;;;;;5074601;28;20070;-73
2022/03/24 09:04:48;;;;;;;13.90;6.72;;;9.60;57.50;;;;;;5062842;28;20036;-74
2022/03/24 09:07:16;;;;;;;13.02;6.80;;;9.70;57.40;;;;;;5062131;28;20044;-74
2022/03/24 09:09:44;;;;;;;12.65;7.25;;;9.70;57.70;;;;;;5065859;28;20154;-73
2022/03/24 09:12:11;;;;;;;13.90;6.50;;;9.80;58.30;;;;;;5072804;28;20040;-73
2022/03/24 09:14:39;;;;;;;13.38;6.10;;;9.90;57.30;;;;;;5066749;28;20056;-72
2022/03/24 09:17:08;;;;;;;11.82;6.13;;;10.10;57.40;;;;;;5071626;28;20032;-71
2022/03/24 09:19:36;;;;;;;14.98;7.43;;;10.10;56.60;;;;;;5064423;28;20497;-72
2022/03/24 09:22:04;;;;;;;15.45;7.20;;;10.20;56.50;;;;;;5070861;28;20068;-73
2022/03/24 09:24:31;;;;;;;13.55;7.25;;;10.30;56.20;;;;;;5073402;28;20513;-73
2022/03/24 09:27:00;;;;;;;15.52;6.13;;;10.40;56.60;;;;;;5066866;28;20139;-73
2022/03/24 09:29:27;;;;;;;12.23;6.82;;;10.50;56.00;;;;;;5069065;28;20127;-73
2022/03/24 09:31:57;;;;;;;20.13;7.50;;;10.60;56.40;;;;;;5066023;28;20123;-73
2022/03/24 09:34:25;;;;;;;15.95;7.10;;;10.70;55.20;;;;;;5059767;28;20052;-73
2022/03/24 09:36:52;;;;;;;12.20;7.15;;;10.70;55.30;;;;;;5060208;28;20505;-72
2022/03/24 09:39:19;;;;;;;12.77;6.93;;;10.80;54.30;;;;;;5064065;28;20039;-74
2022/03/24 09:41:47;;;;;;;12.93;6.30;;;11.00;54.70;;;;;;5065941;28;20044;-73
2022/03/24 09:44:16;;;;;;;12.85;5.88;;;11.00;55.00;;;;;;5065550;28;20028;-71
2022/03/24 09:46:43;;;;;;;17.95;6.72;;;11.10;55.00;;;;;;5059860;28;20063;-73
2022/03/24 09:49:11;;;;;;;14.23;6.28;;;11.20;54.80;;;;;;5062620;28;20049;-73
2022/03/24 09:51:40;;;;;;;11.93;5.85;;;11.30;54.90;;;;;;5061681;28;20078;-74
2022/03/24 09:54:10;;;;;;;14.30;7.18;;;11.40;54.80;;;;;;5064366;28;20040;-73
2022/03/24 09:56:37;;;;;;;10.23;5.77;;;11.40;54.90;;;;;;5064572;28;20040;-74
2022/03/24 09:59:04;;;;;;;13.45;5.95;;;11.60;54.90;;;;;;5049485;28;20456;-74
2022/03/24 10:01:33;;;;;;;14.02;7.07;;;11.60;54.50;;;;;;5062468;28;20163;-73
2022/03/24 10:04:08;;;;;;;11.27;6.28;;;11.80;54.40;;;;;;5062184;28;20055;-74
2022/03/24 10:06:36;;;;;;;12.25;6.03;;;11.80;54.60;;;;;;5063565;28;20037;-74
2022/03/24 10:09:04;;;;;;;11.45;5.85;;;11.90;54.60;;;;;;5060800;28;20046;-73
2022/03/24 10:11:31;;;;;;;11.60;5.88;;;12.00;54.40;;;;;;5069627;28;20056;-73
2022/03/24 10:13:59;;;;;;;12.02;6.20;;;12.10;53.80;;;;;;5064835;28;20497;-73
2022/03/24 10:16:43;;;;;;;11.93;5.60;;;12.30;53.00;;;;;;5056955;28;20495;-74
2022/03/24 10:19:12;;;;;;;9.98;5.50;;;12.40;53.40;;;;;;5072643;28;20097;-73
2022/03/24 10:21:41;;;;;;;12.48;5.72;;;12.40;53.40;;;;;;5050767;28;20047;-74
2022/03/24 10:24:11;;;;;;;12.52;6.07;;;12.60;51.40;;;;;;5078212;28;20044;-73
2022/03/24 10:26:47;;;;;;;10.70;5.75;;;12.70;52.20;;;;;;5074069;28;20040;-73
2022/03/24 10:29:17;;;;;;;12.77;6.60;;;12.70;52.30;;;;;;5071969;28;20122;-73
2022/03/24 10:31:51;;;;;;;11.95;6.60;;;12.70;52.70;;;;;;5070393;28;20051;-73
2022/03/24 10:34:29;;;;;;;12.60;5.90;;;12.90;51.10;;;;;;5070988;28;20032;-73
2022/03/24 10:36:56;;;;;;;12.77;7.40;;;12.90;51.70;;;;;;5060035;28;20040;-73
2022/03/24 10:39:24;;;;;;;15.13;6.97;;;13.00;51.70;;;;;;5071683;28;20063;-73
2022/03/24 10:41:52;;;;;;;12.43;6.97;;;13.00;51.30;;;;;;5074401;28;20136;-72
2022/03/24 10:44:19;;;;;;;13.60;6.90;;;13.20;50.40;;;;;;5078233;28;20041;-74
2022/03/24 10:46:48;;;;;;;13.40;7.20;;;13.20;51.00;;;;;;5073273;28;20060;-73
2022/03/24 10:49:18;;;;;;;14.82;7.35;;;13.20;51.00;;;;;;5075895;28;20135;-73
2022/03/24 10:51:47;;;;;;;16.02;7.90;;;13.20;51.00;;;;;;5072560;28;20054;-74
2022/03/24 10:54:30;;;;;;;17.73;8.27;;;13.30;51.10;;;;;;5075459;28;20576;-74
2022/03/24 10:57:03;;;;;;;13.48;7.85;;;13.30;50.70;;;;;;5056672;28;20051;-72
2022/03/24 10:59:34;;;;;;;15.05;7.57;;;13.40;50.80;;;;;;5066591;28;20040;-72
2022/03/24 11:02:04;;;;;;;16.13;8.23;;;13.40;49.90;;;;;;5066639;28;20124;-73
2022/03/24 11:04:32;;;;;;;13.00;7.05;;;13.60;49.00;;;;;;5049912;28;20175;-73
2022/03/24 11:06:58;;;;;;;15.90;8.55;;;13.60;49.70;;;;;;5067495;28;20122;-73
2022/03/24 11:09:28;;;;;;;18.23;8.85;;;13.60;49.00;;;;;;5072491;28;20052;-74
2022/03/24 11:12:25;;;;;;;18.70;10.27;;;13.60;49.70;;;;;;5065993;28;20036;-73
2022/03/24 11:14:54;;;;;;;19.17;9.38;;;13.70;49.90;;;;;;5068737;28;20040;-74
2022/03/24 11:17:25;;;;;;;17.15;9.20;;;13.70;48.70;;;;;;5057213;28;20386;-73
2022/03/24 11:19:58;;;;;;;20.48;9.60;;;13.80;49.30;;;;;;5071750;28;20753;-73
2022/03/24 11:22:38;;;;;;;20.77;11.25;;;13.80;49.60;;;;;;5073676;28;20498;-72
2022/03/24 11:25:06;;;;;;;19.00;10.45;;;13.80;49.60;;;;;;5072616;28;20154;-73
2022/03/24 11:27:33;;;;;;;17.17;8.93;;;13.80;49.50;;;;;;5065220;28;20048;-72
2022/03/24 11:30:01;;;;;;;21.40;10.80;;;13.90;47.90;;;;;;5064137;28;20044;-73
2022/03/24 11:32:30;;;;;;;20.42;9.82;;;13.90;48.60;;;;;;5066475;28;20093;-72
2022/03/24 11:34:59;;;;;;;20.42;10.80;;;14.00;47.70;;;;;;5067030;28;20131;-73
2022/03/24 11:37:28;;;;;;;20.80;10.38;;;14.10;47.90;;;;;;5069945;28;20045;-73
2022/03/24 11:40:06;;;;;;;21.55;10.65;;;14.40;45.60;;;;;;5069219;28;20032;-74
2022/03/24 11:42:37;;;;;;;25.52;11.75;;;14.60;45.50;;;;;;5059317;28;20082;-74
2022/03/24 11:45:09;;;;;;;23.60;11.50;;;14.40;46.40;;;;;;5067342;28;20040;-73
2022/03/24 11:47:53;;;;;;;24.65;11.90;;;14.30;46.60;;;;;;5072772;28;20056;-72
2022/03/24 11:50:36;;;;;;;16.13;8.57;;;14.30;46.50;;;;;;5071280;28;20032;-74
2022/03/24 11:53:11;;;;;;;21.17;10.27;;;14.30;45.30;;;;;;5073310;28;20044;-73
2022/03/24 11:55:38;;;;;;;27.90;12.15;;;14.60;44.10;;;;;;5068317;28;20044;-73
2022/03/24 11:58:06;;;;;;;28.67;13.15;;;14.60;45.40;;;;;;5065650;28;20039;-73
2022/03/24 12:00:42;;;;;;;22.42;10.38;;;14.50;46.20;;;;;;5066354;28;20060;-73
2022/03/24 12:03:45;;;;;;;20.70;10.45;;;14.50;46.00;;;;;;5068463;28;20044;-73
2022/03/24 12:06:14;;;;;;;17.85;8.77;;;14.40;46.70;;;;;;5069449;28;20111;-71
2022/03/24 12:08:52;;;;;;;19.08;9.43;;;14.40;46.00;;;;;;5063825;28;20045;-74
2022/03/24 12:11:44;;;;;;;19.85;9.02;;;14.30;46.40;;;;;;5063084;28;20043;-72
2022/03/24 12:14:16;;;;;;;20.77;9.35;;;14.30;45.80;;;;;;5070248;28;20045;-73
2022/03/24 12:16:44;;;;;;;19.10;8.00;;;14.30;46.60;;;;;;5070681;28;20063;-72
2022/03/24 12:19:44;;;;;;;18.23;8.75;;;14.30;46.80;;;;;;5071191;28;20136;-73
2022/03/24 12:22:37;;;;;;;17.05;8.52;;;14.20;46.60;;;;;;5065147;28;20059;-73
2022/03/24 12:25:31;;;;;;;11.55;6.57;;;14.20;46.50;;;;;;5063732;28;20314;-72
2022/03/24 12:28:15;;;;;;;17.33;8.05;;;14.40;44.40;;;;;;5069424;28;20048;-73
2022/03/24 12:31:05;;;;;;;16.98;7.72;;;14.60;45.50;;;;;;5070353;28;20040;-71
2022/03/24 12:33:49;;;;;;;16.52;7.72;;;14.60;45.30;;;;;;5048517;28;20044;-72
2022/03/24 12:36:38;;;;;;;17.63;8.88;;;14.60;44.20;;;;;;5065896;28;20068;-72
2022/03/24 12:39:05;;;;;;;27.15;13.02;;;14.60;45.90;;;;;;5069116;28;20071;-72
2022/03/24 12:41:32;;;;;;;34.50;13.80;;;14.50;46.40;;;;;;5060762;28;20039;-71
2022/03/24 12:44:06;;;;;;;22.08;11.18;;;14.40;46.60;;;;;;5060815;28;20132;-73
2022/03/24 12:46:42;;;;;;;34.13;15.43;;;14.60;44.80;;;;;;5061945;28;20084;-71
2022/03/24 12:49:27;;;;;;;26.88;12.73;;;14.50;46.20;;;;;;5061101;28;20052;-72
2022/03/24 12:52:02;;;;;;;22.20;10.73;;;14.50;44.90;;;;;;5065683;28;20056;-73
2022/03/24 12:54:40;;;;;;;23.15;12.18;;;14.60;45.00;;;;;;5069007;28;20056;-71
2022/03/24 12:57:28;;;;;;;18.55;9.52;;;14.60;45.40;;;;;;5064975;28;20136;-73
2022/03/24 12:59:56;;;;;;;25.33;11.65;;;14.70;44.60;;;;;;5066386;28;20048;-72
2022/03/24 13:02:24;;;;;;;18.40;8.35;;;14.60;45.90;;;;;;5043953;28;20367;-73